sim
Sign-in with your pilot id or email,
or register
Callsign
Passwort

Schedule Details

Flight Number: OEO7633
Departure: Gran Canaria Airport (GCLP) at 16:40
Arrival: Munich Airport (EDDM) at 21:20

Weather Information
Getting current METAR information for GCLP 181300Z 03022KT 9999 FEW025 26/19 Q1017 NOSIG
Getting current METAR information for EDDM 181320Z 08011KT CAVOK 19/10 Q1024 NOSIG

Schedule Frequency

Route Map